createdAt,value
2024-02-18T00:01:04.060Z,44.30
2024-02-18T00:03:57.389Z,47.60
2024-02-18T00:06:30.254Z,51.30
2024-02-18T00:09:03.816Z,45.00
2024-02-18T00:11:36.617Z,39.90
2024-02-18T00:14:09.623Z,43.80
2024-02-18T00:16:42.692Z,46.00
2024-02-18T00:19:15.810Z,46.20
2024-02-18T00:21:48.810Z,45.30
2024-02-18T00:24:21.913Z,42.70
2024-02-18T00:26:58.727Z,45.50
2024-02-18T00:29:32.404Z,48.60
2024-02-18T00:32:05.603Z,43.80
2024-02-18T00:34:38.470Z,47.70
2024-02-18T00:37:11.406Z,38.40
2024-02-18T00:39:44.367Z,40.00
2024-02-18T00:42:17.342Z,43.40
2024-02-18T00:44:50.466Z,44.50
2024-02-18T00:47:23.404Z,45.30
2024-02-18T00:49:56.518Z,44.80
2024-02-18T00:52:29.375Z,44.30
2024-02-18T00:55:02.537Z,36.80
2024-02-18T00:57:35.702Z,46.40
2024-02-18T01:00:11.597Z,42.00
2024-02-18T01:05:16.061Z,46.00
2024-02-18T01:07:49.481Z,57.10
2024-02-18T01:10:22.341Z,51.40
2024-02-18T01:12:55.375Z,42.90
2024-02-18T01:15:28.492Z,36.90
2024-02-18T01:18:01.646Z,34.50
2024-02-18T01:20:34.590Z,44.60
2024-02-18T01:23:07.527Z,44.00
2024-02-18T01:25:40.818Z,45.40
2024-02-18T01:28:13.984Z,44.50
2024-02-18T01:30:46.930Z,40.10
2024-02-18T01:33:21.722Z,43.10
2024-02-18T01:35:54.587Z,47.40
2024-02-18T01:38:27.320Z,41.20
2024-02-18T01:41:00.365Z,37.70
2024-02-18T01:43:33.954Z,35.00
2024-02-18T01:46:07.054Z,45.70
2024-02-18T01:48:40.520Z,42.60
2024-02-18T01:51:14.113Z,40.30
2024-02-18T01:53:47.261Z,36.00
2024-02-18T01:56:23.310Z,50.30
2024-02-18T02:01:28.249Z,38.90
2024-02-18T02:04:01.138Z,40.70
2024-02-18T02:06:34.750Z,43.20
2024-02-18T02:09:08.395Z,45.80
2024-02-18T02:11:41.848Z,46.30
2024-02-18T02:14:14.956Z,52.30
2024-02-18T02:16:47.989Z,39.80
2024-02-18T02:19:23.566Z,43.60
2024-02-18T02:21:56.681Z,44.30
2024-02-18T02:24:29.783Z,36.80
2024-02-18T02:27:07.219Z,45.70
2024-02-18T02:29:40.296Z,42.50
2024-02-18T02:32:14.001Z,40.90
2024-02-18T02:34:47.189Z,44.50
2024-02-18T02:37:20.259Z,48.80
2024-02-18T02:39:53.393Z,47.80
2024-02-18T02:42:26.540Z,43.50
2024-02-18T02:44:59.667Z,49.70
2024-02-18T02:47:32.698Z,45.90
2024-02-18T02:50:06.097Z,44.70
2024-02-18T02:52:41.757Z,46.30
2024-02-18T02:55:15.268Z,42.70
2024-02-18T02:57:49.722Z,46.00
2024-02-18T03:00:23.576Z,57.80
2024-02-18T03:02:56.746Z,53.00
2024-02-18T03:05:30.010Z,44.40
2024-02-18T03:08:02.988Z,43.30
2024-02-18T03:10:38.469Z,55.40
2024-02-18T03:13:11.463Z,38.10
2024-02-18T03:15:44.546Z,46.10
2024-02-18T03:18:17.704Z,47.80
2024-02-18T03:20:50.866Z,48.40
2024-02-18T03:23:23.944Z,45.20
2024-02-18T03:25:56.910Z,47.30
2024-02-18T03:28:29.804Z,43.20
2024-02-18T03:31:02.860Z,42.30
2024-02-18T03:33:35.795Z,48.20
2024-02-18T03:36:09.205Z,40.20
2024-02-18T03:38:42.025Z,40.90
2024-02-18T03:41:15.033Z,43.30
2024-02-18T03:43:47.917Z,50.70
2024-02-18T03:46:20.650Z,43.70
2024-02-18T03:48:53.638Z,49.50
2024-02-18T03:51:26.669Z,45.90
2024-02-18T03:53:59.648Z,39.30
2024-02-18T03:56:37.396Z,46.30
2024-02-18T03:59:11.511Z,41.30
2024-02-18T04:01:44.498Z,45.60
2024-02-18T04:04:18.057Z,38.80
2024-02-18T04:06:51.165Z,41.70
2024-02-18T04:09:24.126Z,42.80
2024-02-18T04:11:57.928Z,43.90
2024-02-18T04:14:30.883Z,47.30
2024-02-18T04:17:04.540Z,49.70
2024-02-18T04:19:38.928Z,42.80
2024-02-18T04:22:12.418Z,44.60
2024-02-18T04:24:45.581Z,43.30
2024-02-18T04:27:19.201Z,44.20
2024-02-18T04:29:52.001Z,41.80
2024-02-18T04:32:25.820Z,48.20
2024-02-18T04:34:58.938Z,45.10
2024-02-18T04:37:31.998Z,52.70
2024-02-18T04:40:05.770Z,46.30
2024-02-18T04:42:38.938Z,47.90
2024-02-18T04:45:12.626Z,51.00
2024-02-18T04:47:45.748Z,44.00
2024-02-18T04:50:18.744Z,44.80
2024-02-18T04:52:51.862Z,51.50
2024-02-18T04:55:24.610Z,42.60
2024-02-18T04:57:57.385Z,47.10
2024-02-18T05:00:30.209Z,49.90
2024-02-18T05:03:02.998Z,50.80
2024-02-18T05:05:35.830Z,45.70
2024-02-18T05:08:09.846Z,45.40
2024-02-18T05:10:43.085Z,45.40
2024-02-18T05:13:15.869Z,47.50
2024-02-18T05:15:52.755Z,53.20
2024-02-18T05:18:26.154Z,50.20
2024-02-18T05:20:59.316Z,55.80
2024-02-18T05:23:32.360Z,48.00
2024-02-18T05:26:05.305Z,50.20
2024-02-18T05:28:38.166Z,50.00
2024-02-18T05:31:24.569Z,45.50
2024-02-18T05:33:57.621Z,52.90
2024-02-18T05:36:31.138Z,48.70
2024-02-18T05:39:04.381Z,48.20
2024-02-18T05:41:37.455Z,49.10
2024-02-18T05:44:11.016Z,58.60
2024-02-18T05:46:43.871Z,56.30
2024-02-18T05:49:17.491Z,45.60
2024-02-18T05:51:55.404Z,47.10
2024-02-18T05:54:29.956Z,52.50
2024-02-18T05:57:02.854Z,44.00
2024-02-18T05:59:35.868Z,44.30
2024-02-18T06:02:08.903Z,43.30
2024-02-18T06:04:41.861Z,48.90
2024-02-18T06:07:14.761Z,44.90
2024-02-18T06:09:47.928Z,48.50
2024-02-18T06:12:20.902Z,47.10
2024-02-18T06:14:53.801Z,45.60
2024-02-18T06:17:26.553Z,47.10
2024-02-18T06:20:00.530Z,47.50
2024-02-18T06:22:33.673Z,44.30
2024-02-18T06:25:07.175Z,47.90
2024-02-18T06:27:40.424Z,49.20
2024-02-18T06:30:15.097Z,48.70
2024-02-18T06:32:47.972Z,55.40
2024-02-18T06:35:20.949Z,51.30
2024-02-18T06:37:54.346Z,44.90
2024-02-18T06:40:27.760Z,50.60
2024-02-18T06:43:00.723Z,49.90
2024-02-18T06:45:33.611Z,54.20
2024-02-18T06:48:07.863Z,48.30
2024-02-18T06:50:41.200Z,49.50
2024-02-18T06:53:16.196Z,49.10
2024-02-18T06:55:49.201Z,53.60
2024-02-18T06:58:22.736Z,54.80
2024-02-18T07:00:55.802Z,68.40
2024-02-18T07:03:28.916Z,56.10
2024-02-18T07:06:01.966Z,52.20
2024-02-18T07:08:35.023Z,51.60
2024-02-18T07:11:08.345Z,59.90
2024-02-18T07:13:41.034Z,60.80
2024-02-18T07:16:14.086Z,58.70
2024-02-18T07:18:47.214Z,58.70
2024-02-18T07:21:20.197Z,63.50
2024-02-18T07:23:52.963Z,56.80
2024-02-18T07:26:26.265Z,56.30
2024-02-18T07:29:01.291Z,60.40
2024-02-18T07:31:38.464Z,53.80
2024-02-18T07:34:11.834Z,57.40
2024-02-18T07:36:45.071Z,61.50
2024-02-18T07:39:18.484Z,59.60
2024-02-18T07:41:51.510Z,65.90
2024-02-18T07:44:24.674Z,57.20
2024-02-18T07:46:58.912Z,66.10
2024-02-18T07:49:31.833Z,62.80
2024-02-18T07:52:04.830Z,57.40
2024-02-18T07:54:38.006Z,53.70
2024-02-18T07:57:10.993Z,69.60
2024-02-18T07:59:43.855Z,59.20
2024-02-18T08:02:16.728Z,71.40
2024-02-18T08:04:50.617Z,61.00
2024-02-18T08:07:25.098Z,77.30
2024-02-18T08:09:58.265Z,66.70
2024-02-18T08:12:31.349Z,69.60
2024-02-18T08:15:04.380Z,73.50
2024-02-18T08:17:37.466Z,81.50
2024-02-18T08:20:12.183Z,66.50
2024-02-18T08:22:45.615Z,80.00
2024-02-18T08:25:18.699Z,69.00
2024-02-18T08:27:51.518Z,71.50
2024-02-18T08:30:24.591Z,77.20
2024-02-18T08:32:57.730Z,78.30
2024-02-18T08:35:30.743Z,60.30
2024-02-18T08:38:03.551Z,61.00
2024-02-18T08:40:36.421Z,56.30
2024-02-18T08:43:09.849Z,59.60
2024-02-18T08:45:43.009Z,65.90
2024-02-18T08:48:16.091Z,79.20
2024-02-18T08:50:48.942Z,76.80
2024-02-18T08:53:23.038Z,72.50
2024-02-18T08:55:55.915Z,85.10
2024-02-18T08:58:29.003Z,81.50
2024-02-18T09:01:02.010Z,98.80
2024-02-18T09:03:35.303Z,79.00
2024-02-18T09:06:08.941Z,89.20
2024-02-18T09:08:43.141Z,89.60
2024-02-18T09:11:16.938Z,77.00
2024-02-18T09:13:50.095Z,87.30
2024-02-18T09:16:23.131Z,85.10
2024-02-18T09:18:56.074Z,79.30
2024-02-18T09:21:29.302Z,78.00
2024-02-18T09:24:02.175Z,85.00
2024-02-18T09:26:34.934Z,85.20
2024-02-18T09:29:08.537Z,65.10
2024-02-18T09:31:41.889Z,71.90
2024-02-18T09:34:15.368Z,76.70
2024-02-18T09:36:48.625Z,65.40
2024-02-18T09:39:21.610Z,66.40
2024-02-18T09:41:56.026Z,59.70
2024-02-18T09:44:30.839Z,68.00
2024-02-18T09:47:05.404Z,70.80
2024-02-18T09:49:39.800Z,68.70
2024-02-18T09:52:18.200Z,67.50
2024-02-18T09:54:52.879Z,71.00
2024-02-18T09:57:25.927Z,63.20
2024-02-18T09:59:58.892Z,67.30
2024-02-18T10:02:36.972Z,61.70
2024-02-18T10:05:12.683Z,72.00
2024-02-18T10:07:46.813Z,80.90
2024-02-18T10:10:19.932Z,75.50
2024-02-18T10:12:54.123Z,67.90
2024-02-18T10:15:27.303Z,73.40
2024-02-18T10:18:00.429Z,74.70
2024-02-18T10:20:33.777Z,70.90
2024-02-18T10:23:07.188Z,72.50
2024-02-18T10:25:41.333Z,76.60
2024-02-18T10:28:14.548Z,73.40
2024-02-18T10:30:47.651Z,75.80
2024-02-18T10:33:21.861Z,82.80
2024-02-18T10:35:57.892Z,84.40
2024-02-18T10:41:05.962Z,78.20
2024-02-18T10:43:47.953Z,83.00
2024-02-18T10:46:25.158Z,73.40
2024-02-18T10:49:05.354Z,80.50
2024-02-18T10:51:42.085Z,76.50
2024-02-18T10:54:28.920Z,92.30
2024-02-18T10:57:04.813Z,79.30
2024-02-18T10:59:45.649Z,79.70
2024-02-18T11:02:25.197Z,64.20
2024-02-18T11:04:59.729Z,71.50
2024-02-18T11:07:33.823Z,70.10
2024-02-18T11:10:09.375Z,80.70
2024-02-18T11:12:46.264Z,84.10
2024-02-18T11:15:19.189Z,68.10
2024-02-18T11:17:52.897Z,72.10
2024-02-18T11:20:27.278Z,92.70
2024-02-18T11:23:01.976Z,71.30
2024-02-18T11:25:34.961Z,86.20
2024-02-18T11:28:09.282Z,76.00
2024-02-18T11:30:42.910Z,77.70
2024-02-18T11:33:20.454Z,78.60
2024-02-18T11:36:14.286Z,78.60
2024-02-18T11:38:48.171Z,73.60
2024-02-18T11:41:28.329Z,82.90
2024-02-18T11:44:08.094Z,69.50
2024-02-18T11:46:42.472Z,95.80
2024-02-18T11:49:15.689Z,72.80
2024-02-18T11:51:48.837Z,72.50
2024-02-18T11:54:21.827Z,70.50
2024-02-18T11:56:55.074Z,75.90
2024-02-18T11:59:29.346Z,82.50
2024-02-18T12:02:03.748Z,70.20
2024-02-18T12:04:39.936Z,75.10
2024-02-18T12:07:14.675Z,77.10
2024-02-18T12:09:47.967Z,78.50
2024-02-18T12:12:20.742Z,87.50
2024-02-18T12:14:57.536Z,69.60
2024-02-18T12:17:30.976Z,73.40
2024-02-18T12:20:08.109Z,76.20
2024-02-18T12:22:45.794Z,68.40
2024-02-18T12:25:19.261Z,66.60
2024-02-18T12:27:52.396Z,63.30
2024-02-18T12:30:25.543Z,70.50
2024-02-18T12:33:00.904Z,76.60
2024-02-18T12:35:35.221Z,65.70
2024-02-18T12:38:08.435Z,61.50
2024-02-18T12:40:41.518Z,64.20
2024-02-18T12:43:39.655Z,62.60
2024-02-18T12:46:09.955Z,64.20
2024-02-18T12:48:43.724Z,59.60
2024-02-18T12:51:18.600Z,48.90
2024-02-18T12:53:52.204Z,58.50
2024-02-18T12:56:25.855Z,54.90
2024-02-18T12:58:58.721Z,58.10
2024-02-18T13:01:32.477Z,59.90
2024-02-18T13:04:05.469Z,54.30
2024-02-18T13:06:38.713Z,55.80
2024-02-18T13:09:21.641Z,53.40
2024-02-18T13:11:54.775Z,52.60
2024-02-18T13:14:27.624Z,50.60
2024-02-18T13:17:00.633Z,56.30
2024-02-18T13:19:33.636Z,58.20
2024-02-18T13:22:06.970Z,49.30
2024-02-18T13:24:39.768Z,51.70
2024-02-18T13:27:12.723Z,50.40
2024-02-18T13:29:45.603Z,55.60
2024-02-18T13:32:18.609Z,55.20
2024-02-18T13:34:51.922Z,64.70
2024-02-18T13:37:25.099Z,62.30
2024-02-18T13:39:58.369Z,59.90
2024-02-18T13:42:31.334Z,53.90
2024-02-18T13:45:06.285Z,54.20
2024-02-18T13:47:39.490Z,57.60
2024-02-18T13:50:14.350Z,46.40
2024-02-18T13:52:47.502Z,43.40
2024-02-18T13:55:20.468Z,50.50
2024-02-18T13:57:53.487Z,44.90
2024-02-18T14:00:26.850Z,48.40
2024-02-18T14:03:00.548Z,43.00
2024-02-18T14:05:34.745Z,49.30
2024-02-18T14:08:09.030Z,46.20
2024-02-18T14:10:41.911Z,44.60
2024-02-18T14:13:15.154Z,51.50
2024-02-18T14:15:48.020Z,42.60
2024-02-18T14:18:20.780Z,43.30
2024-02-18T14:20:56.554Z,43.40
2024-02-18T14:23:30.567Z,47.40
2024-02-18T14:26:04.946Z,50.00
2024-02-18T14:28:38.057Z,46.40
2024-02-18T14:31:10.914Z,43.70
2024-02-18T14:33:44.101Z,52.60
2024-02-18T14:36:18.754Z,47.40
2024-02-18T14:38:52.788Z,50.30
2024-02-18T14:41:27.737Z,45.60
2024-02-18T14:44:00.687Z,47.70
2024-02-18T14:46:33.762Z,45.90
2024-02-18T14:49:06.748Z,49.70
2024-02-18T14:51:39.716Z,54.60
2024-02-18T14:54:12.648Z,54.10
2024-02-18T14:56:45.729Z,55.10
2024-02-18T14:59:19.422Z,68.60
2024-02-18T15:01:52.405Z,57.10
2024-02-18T15:04:25.107Z,56.50
2024-02-18T15:06:58.121Z,55.80
2024-02-18T15:09:33.903Z,57.70
2024-02-18T15:12:08.014Z,53.60
2024-02-18T15:14:41.428Z,48.70
2024-02-18T15:17:14.434Z,58.20
2024-02-18T15:19:54.389Z,50.50
2024-02-18T15:22:27.697Z,73.40
2024-02-18T15:25:00.615Z,54.10
2024-02-18T15:27:33.879Z,49.20
2024-02-18T15:30:08.624Z,56.30
2024-02-18T15:32:41.526Z,45.70
2024-02-18T15:35:16.426Z,52.40
2024-02-18T15:37:49.683Z,55.00
2024-02-18T15:40:23.010Z,50.70
2024-02-18T15:42:56.669Z,46.60
2024-02-18T15:45:29.876Z,46.30
2024-02-18T15:48:02.883Z,38.80
2024-02-18T15:50:37.158Z,46.20
2024-02-18T15:53:11.001Z,41.80
2024-02-18T15:55:53.544Z,37.80
2024-02-18T15:58:31.159Z,29.80
2024-02-18T16:01:05.068Z,31.30
2024-02-18T16:03:39.790Z,29.50
2024-02-18T16:06:13.055Z,28.80
2024-02-18T16:08:45.848Z,29.40
2024-02-18T16:11:18.794Z,30.60
2024-02-18T16:13:51.828Z,32.70
2024-02-18T16:16:25.016Z,33.10
2024-02-18T16:18:58.286Z,32.70
2024-02-18T16:21:31.358Z,32.80
2024-02-18T16:24:04.326Z,26.60
2024-02-18T16:26:37.422Z,35.10
2024-02-18T16:29:10.280Z,33.00
2024-02-18T16:31:43.305Z,30.80
2024-02-18T16:34:17.232Z,34.80
2024-02-18T16:36:50.621Z,38.00
2024-02-18T16:39:23.735Z,43.60
2024-02-18T16:41:56.879Z,33.50
2024-02-18T16:44:30.838Z,37.60
2024-02-18T16:47:04.792Z,36.40
2024-02-18T16:49:37.972Z,36.40
2024-02-18T16:52:11.063Z,34.80
2024-02-18T16:54:44.151Z,38.30
2024-02-18T16:57:17.149Z,41.00
2024-02-18T16:59:50.090Z,35.70
2024-02-18T17:02:23.101Z,36.70
2024-02-18T17:04:56.266Z,36.10
2024-02-18T17:07:29.144Z,38.60
2024-02-18T17:10:02.053Z,33.50
2024-02-18T17:12:35.142Z,40.10
2024-02-18T17:15:09.895Z,38.20
2024-02-18T17:17:42.630Z,33.20
2024-02-18T17:20:16.776Z,30.90
2024-02-18T17:22:49.940Z,40.30
2024-02-18T17:25:24.130Z,36.60
2024-02-18T17:27:57.369Z,36.60
2024-02-18T17:30:31.283Z,38.90
2024-02-18T17:33:04.874Z,35.90
2024-02-18T17:35:41.347Z,45.30
2024-02-18T17:38:14.350Z,35.60
2024-02-18T17:40:48.185Z,37.60
2024-02-18T17:43:22.970Z,40.90
2024-02-18T17:45:56.201Z,37.60
2024-02-18T17:48:29.243Z,38.30
2024-02-18T17:51:02.392Z,41.30
2024-02-18T17:53:35.241Z,39.10
2024-02-18T17:56:09.581Z,40.20
2024-02-18T17:58:43.578Z,31.60
2024-02-18T18:01:16.994Z,35.10
2024-02-18T18:03:52.985Z,30.00
2024-02-18T18:08:58.297Z,38.40
2024-02-18T18:11:31.560Z,34.20
2024-02-18T18:14:04.599Z,33.90
2024-02-18T18:16:38.352Z,34.30
2024-02-18T18:19:13.083Z,42.90
2024-02-18T18:21:46.164Z,35.10
2024-02-18T18:24:19.025Z,33.80
2024-02-18T18:26:52.464Z,35.10
2024-02-18T18:29:25.908Z,46.00
2024-02-18T18:31:59.028Z,34.90
2024-02-18T18:34:33.627Z,40.80
2024-02-18T18:37:07.133Z,36.80
2024-02-18T18:39:42.997Z,34.00
2024-02-18T18:42:15.988Z,36.40
2024-02-18T18:44:53.248Z,45.70
2024-02-18T18:47:29.433Z,39.30
2024-02-18T18:50:03.787Z,36.20
2024-02-18T18:52:37.648Z,38.50
2024-02-18T18:55:14.824Z,40.10
2024-02-18T18:57:47.966Z,34.50
2024-02-18T19:00:22.960Z,38.10
2024-02-18T19:02:55.997Z,37.20
2024-02-18T19:05:29.864Z,42.60
2024-02-18T19:08:03.064Z,41.20
2024-02-18T19:10:36.813Z,35.40
2024-02-18T19:13:23.348Z,33.60
2024-02-18T19:16:04.282Z,33.50
2024-02-18T19:18:41.619Z,33.50
2024-02-18T19:21:14.721Z,29.50
2024-02-18T19:23:47.574Z,34.00
2024-02-18T19:26:24.429Z,33.40
2024-02-18T19:28:58.640Z,33.70
2024-02-18T19:31:31.612Z,36.80
2024-02-18T19:34:08.310Z,40.10
2024-02-18T19:36:44.041Z,40.40
2024-02-18T19:39:18.314Z,31.40
2024-02-18T19:41:51.428Z,37.30
2024-02-18T19:44:26.624Z,42.20
2024-02-18T19:47:00.074Z,36.50
2024-02-18T19:49:33.020Z,35.10
2024-02-18T19:52:06.674Z,31.00
2024-02-18T19:54:43.369Z,31.60
2024-02-18T19:57:18.728Z,34.10
2024-02-18T19:59:52.731Z,32.90
2024-02-18T20:02:25.803Z,31.50
2024-02-18T20:04:59.310Z,40.10
2024-02-18T20:07:32.333Z,28.50
2024-02-18T20:10:08.501Z,37.40
2024-02-18T20:12:41.453Z,32.40
2024-02-18T20:15:14.833Z,31.40
2024-02-18T20:17:47.705Z,38.00
2024-02-18T20:20:21.546Z,33.80
2024-02-18T20:22:55.011Z,32.50
2024-02-18T20:25:33.141Z,34.20
2024-02-18T20:28:06.494Z,35.30
2024-02-18T20:30:39.572Z,36.30
2024-02-18T20:33:13.077Z,26.60
2024-02-18T20:35:46.561Z,29.30
2024-02-18T20:38:19.569Z,30.60
2024-02-18T20:40:54.433Z,31.20
2024-02-18T20:43:27.468Z,28.10
2024-02-18T20:46:00.721Z,34.50
2024-02-18T20:48:33.637Z,37.60
2024-02-18T20:51:07.043Z,29.80
2024-02-18T20:53:40.519Z,33.20
2024-02-18T20:56:14.602Z,33.30
2024-02-18T20:58:47.625Z,30.60
2024-02-18T21:01:21.336Z,29.00
2024-02-18T21:03:54.513Z,35.90
2024-02-18T21:06:27.423Z,31.10
2024-02-18T21:09:00.397Z,32.70
2024-02-18T21:11:33.397Z,30.90
2024-02-18T21:14:06.452Z,31.70
2024-02-18T21:16:39.497Z,29.40
2024-02-18T21:19:12.424Z,32.90
2024-02-18T21:21:45.274Z,32.60
2024-02-18T21:24:18.080Z,32.40
2024-02-18T21:26:51.034Z,33.80
2024-02-18T21:29:23.936Z,29.00
2024-02-18T21:31:56.795Z,28.00
2024-02-18T21:34:29.858Z,28.50
2024-02-18T21:37:03.632Z,30.30
2024-02-18T21:39:44.276Z,32.70
2024-02-18T21:42:21.385Z,34.20
2024-02-18T21:44:54.250Z,28.60
2024-02-18T21:47:27.278Z,34.20
2024-02-18T21:50:00.319Z,35.80
2024-02-18T21:52:33.322Z,30.40
2024-02-18T21:55:06.992Z,27.00
2024-02-18T21:57:40.031Z,26.20
2024-02-18T22:00:15.111Z,27.80
2024-02-18T22:02:48.017Z,42.00
2024-02-18T22:05:21.067Z,31.50
2024-02-18T22:07:53.985Z,28.30
2024-02-18T22:10:27.269Z,37.70
2024-02-18T22:13:00.369Z,40.00
2024-02-18T22:15:33.387Z,39.50
2024-02-18T22:18:06.905Z,33.20
2024-02-18T22:20:40.082Z,37.80
2024-02-18T22:23:13.008Z,37.90
2024-02-18T22:25:45.956Z,36.80
2024-02-18T22:28:18.941Z,37.50
2024-02-18T22:30:52.244Z,40.20
2024-02-18T22:33:25.248Z,42.40
2024-02-18T22:35:58.190Z,55.10
2024-02-18T22:38:31.180Z,41.00
2024-02-18T22:41:04.167Z,39.20
2024-02-18T22:43:37.014Z,37.20
2024-02-18T22:46:10.571Z,39.20
2024-02-18T22:48:43.468Z,40.10
2024-02-18T22:51:16.227Z,30.00
2024-02-18T22:53:49.357Z,20.70
2024-02-18T22:56:22.080Z,22.70
2024-02-18T22:58:54.964Z,22.40
2024-02-18T23:01:31.791Z,23.20
2024-02-18T23:04:04.915Z,20.70
2024-02-18T23:06:37.863Z,18.80
2024-02-18T23:09:10.886Z,21.10
2024-02-18T23:11:43.706Z,21.40
2024-02-18T23:14:16.588Z,24.00
2024-02-18T23:16:49.901Z,22.60
2024-02-18T23:19:23.041Z,27.90
2024-02-18T23:21:56.212Z,26.30
2024-02-18T23:24:29.149Z,32.40
2024-02-18T23:27:01.819Z,25.20
2024-02-18T23:29:34.602Z,24.30
2024-02-18T23:32:09.909Z,25.30
2024-02-18T23:34:43.167Z,22.20
2024-02-18T23:37:16.527Z,24.20
2024-02-18T23:39:49.611Z,28.70
2024-02-18T23:42:22.599Z,22.10
2024-02-18T23:44:55.665Z,22.40
2024-02-18T23:47:30.050Z,19.70
2024-02-18T23:50:02.909Z,24.80
2024-02-18T23:52:35.953Z,15.70
2024-02-18T23:55:09.891Z,17.30
2024-02-18T23:57:43.130Z,15.20
